EDT,Max TemperatureF,Mean TemperatureF,Min TemperatureF,Max Dew PointF,MeanDew PointF,Min DewpointF,Max Humidity, Mean Humidity, Min Humidity, Max Sea Level PressureIn, Mean Sea Level PressureIn, Min Sea Level PressureIn, Max VisibilityMiles, Mean VisibilityMiles, Min VisibilityMiles, Max Wind SpeedMPH, Mean Wind SpeedMPH, Max Gust SpeedMPH,PrecipitationIn, CloudCover, Events, WindDirDegrees
2011-10-1,61,54,46,61,57,46,100,96,88,29.91,29.74,29.65,10,4,2,20,7,29,0.16,8,Rain,24
2011-10-2,55,50,46,54,52,46,100,98,93,29.98,29.93,29.89,10,4,2,16,13,25,1.23,8,Rain-Thunderstorm,18
2011-10-3,64,58,52,56,54,52,100,94,73,30.12,30.06,29.94,10,5,0,13,7,,0.05,8,Fog-Rain,27
2011-10-4,55,52,50,55,53,48,100,97,88,30.10,30.00,29.91,10,5,0,17,7,24,0.41,8,Fog-Rain,15
2011-10-5,55,47,39,49,42,29,94,77,49,30.14,29.95,29.87,10,10,8,31,12,39,0.00,5,Rain,338
2011-10-6,51,43,35,30,26,21,73,54,31,30.35,30.23,30.15,10,10,10,16,7,25,0.00,0,,322
2011-10-7,57,46,34,40,32,25,85,64,33,30.46,30.39,30.34,10,10,10,8,4,,0.00,0,,275
2011-10-8,80,62,46,53,48,41,83,56,38,30.36,30.30,30.25,10,10,10,9,4,17,0.00,0,,253
2011-10-9,82,73,64,51,47,43,54,43,26,30.27,30.21,30.15,10,10,10,10,6,16,0.00,0,,282
2011-10-10,78,66,53,55,45,34,65,48,24,30.17,30.11,30.04,10,10,10,13,6,23,0.00,0,,300
2011-10-11,63,54,45,44,40,37,89,64,42,30.30,30.24,30.17,10,10,10,7,3,,0.00,0,,351
2011-10-12,57,49,41,48,46,40,97,83,65,30.31,30.25,30.17,10,10,10,9,3,,0.00,6,Rain,137
2011-10-13,57,54,50,57,53,48,100,96,88,30.16,29.99,29.85,10,5,1,9,5,,0.31,8,Rain,43
2011-10-14,62,60,57,63,60,57,100,99,94,29.84,29.61,29.28,10,2,0,10,6,,0.51,8,Fog-Rain,88
2011-10-15,61,57,52,61,48,39,100,73,52,29.54,29.40,29.23,10,10,4,15,10,30,0.01,4,Rain-Thunderstorm,201
2011-10-16,60,54,50,42,39,36,71,59,42,29.67,29.62,29.54,10,10,10,12,8,22,0.00,4,,220
2011-10-17,61,54,48,49,38,28,93,60,29,29.69,29.59,29.51,10,10,10,12,6,21,0.02,4,Rain,226
2011-10-18,59,52,45,43,41,39,86,67,48,29.96,29.80,29.67,10,10,10,7,2,,0.00,3,,239
2011-10-19,53,49,45,48,46,42,100,90,77,30.09,29.97,29.79,10,8,2,18,4,25,0.33,6,Rain,30
2011-10-20,60,54,48,61,53,48,100,96,83,29.78,29.59,29.48,10,4,0,17,11,25,0.38,7,Fog-Rain,64
2011-10-21,59,52,46,48,44,41,93,74,55,29.90,29.76,29.62,10,10,10,9,5,20,0.00,3,,214
2011-10-22,55,49,43,47,44,40,100,83,63,30.04,29.96,29.91,10,10,2,5,1,,0.05,8,Rain,289
2011-10-23,55,48,42,43,39,37,86,71,51,30.12,30.09,30.04,10,10,10,6,3,,0.00,5,,291
2011-10-24,54,47,41,45,42,38,96,80,57,30.14,30.07,29.93,10,10,10,7,2,,0.00,2,,165
2011-10-25,55,50,44,49,41,32,100,78,52,29.88,29.84,29.78,10,8,1,18,4,29,0.09,4,Rain,280
2011-10-26,53,47,41,33,30,24,70,55,34,29.91,29.84,29.77,10,10,10,10,5,17,0.00,3,,297
2011-10-27,42,39,36,32,29,24,82,69,55,29.84,29.79,29.74,10,10,8,10,6,,0.01,8,Rain,14
2011-10-28,46,38,32,26,21,17,70,51,33,30.23,30.05,29.86,10,10,10,16,8,30,0.00,1,,294
2011-10-29,39,34,28,32,27,23,100,75,53,30.31,30.15,29.92,10,7,0,14,5,21,0.14,4,Fog-Snow,11
2011-10-30,41,36,32,34,30,25,100,85,60,30.22,29.89,29.75,10,6,1,24,18,37,0.13,6,Rain-Snow,339
2011-10-31,48,38,28,34,28,25,86,65,46,30.42,30.36,30.24,10,10,10,6,4,,0.00,0,,244